sensor_id;sensor_type;location;lat;lon;timestamp;temperature;humidity
52125;DHT22;38119;52.710;6.398;2023-05-07T00:01:18;14.90;99.90
52125;DHT22;38119;52.710;6.398;2023-05-07T00:03:43;14.90;99.90
52125;DHT22;38119;52.710;6.398;2023-05-07T00:06:09;14.90;99.90
52125;DHT22;38119;52.710;6.398;2023-05-07T00:08:38;14.90;99.90
52125;DHT22;38119;52.710;6.398;2023-05-07T00:11:03;14.80;99.90
52125;DHT22;38119;52.710;6.398;2023-05-07T00:13:29;14.80;99.90
52125;DHT22;38119;52.710;6.398;2023-05-07T00:16:03;14.90;99.90
52125;DHT22;38119;52.710;6.398;2023-05-07T00:18:29;14.80;99.90
52125;DHT22;38119;52.710;6.398;2023-05-07T00:20:55;14.80;99.90
52125;DHT22;38119;52.710;6.398;2023-05-07T00:23:20;14.80;99.90
52125;DHT22;38119;52.710;6.398;2023-05-07T00:25:46;14.80;99.90
52125;DHT22;38119;52.710;6.398;2023-05-07T00:28:11;14.80;99.90
52125;DHT22;38119;52.710;6.398;2023-05-07T00:30:37;14.80;99.90
52125;DHT22;38119;52.710;6.398;2023-05-07T00:33:02;14.80;99.90
52125;DHT22;38119;52.710;6.398;2023-05-07T00:35:29;14.80;99.90
52125;DHT22;38119;52.710;6.398;2023-05-07T00:37:55;14.80;99.90
52125;DHT22;38119;52.710;6.398;2023-05-07T00:40:20;14.80;99.90
52125;DHT22;38119;52.710;6.398;2023-05-07T00:42:46;14.80;99.90
52125;DHT22;38119;52.710;6.398;2023-05-07T00:45:13;14.80;99.90
52125;DHT22;38119;52.710;6.398;2023-05-07T00:47:39;14.80;99.90
52125;DHT22;38119;52.710;6.398;2023-05-07T00:50:06;14.70;99.90
52125;DHT22;38119;52.710;6.398;2023-05-07T00:52:32;14.70;99.90
52125;DHT22;38119;52.710;6.398;2023-05-07T00:55:01;14.70;99.90
52125;DHT22;38119;52.710;6.398;2023-05-07T00:57:29;14.80;99.90
52125;DHT22;38119;52.710;6.398;2023-05-07T00:59:57;14.70;99.90
52125;DHT22;38119;52.710;6.398;2023-05-07T01:02:23;14.70;99.90
52125;DHT22;38119;52.710;6.398;2023-05-07T01:04:48;14.70;99.90
52125;DHT22;38119;52.710;6.398;2023-05-07T01:07:14;14.70;99.90
52125;DHT22;38119;52.710;6.398;2023-05-07T01:09:40;14.70;99.90
52125;DHT22;38119;52.710;6.398;2023-05-07T01:12:07;14.70;99.90
52125;DHT22;38119;52.710;6.398;2023-05-07T01:14:33;14.70;99.90
52125;DHT22;38119;52.710;6.398;2023-05-07T01:16:59;14.70;99.90
52125;DHT22;38119;52.710;6.398;2023-05-07T01:19:24;14.60;99.90
52125;DHT22;38119;52.710;6.398;2023-05-07T01:21:51;14.60;99.90
52125;DHT22;38119;52.710;6.398;2023-05-07T01:24:16;14.60;99.90
52125;DHT22;38119;52.710;6.398;2023-05-07T01:26:44;14.60;99.90
52125;DHT22;38119;52.710;6.398;2023-05-07T01:29:10;14.60;99.90
52125;DHT22;38119;52.710;6.398;2023-05-07T01:31:36;14.60;99.90
52125;DHT22;38119;52.710;6.398;2023-05-07T01:34:03;14.50;99.90
52125;DHT22;38119;52.710;6.398;2023-05-07T01:36:30;14.50;99.90
52125;DHT22;38119;52.710;6.398;2023-05-07T01:38:57;14.50;99.90
52125;DHT22;38119;52.710;6.398;2023-05-07T01:41:24;14.50;99.90
52125;DHT22;38119;52.710;6.398;2023-05-07T01:43:50;14.50;99.90
52125;DHT22;38119;52.710;6.398;2023-05-07T01:46:17;14.50;99.90
52125;DHT22;38119;52.710;6.398;2023-05-07T01:48:44;14.50;99.90
52125;DHT22;38119;52.710;6.398;2023-05-07T01:51:11;14.40;99.90
52125;DHT22;38119;52.710;6.398;2023-05-07T01:53:38;14.40;99.90
52125;DHT22;38119;52.710;6.398;2023-05-07T01:56:04;14.40;99.90
52125;DHT22;38119;52.710;6.398;2023-05-07T01:58:29;14.40;99.90
52125;DHT22;38119;52.710;6.398;2023-05-07T02:00:55;14.40;99.90
52125;DHT22;38119;52.710;6.398;2023-05-07T02:03:20;14.30;99.90
52125;DHT22;38119;52.710;6.398;2023-05-07T02:05:46;14.30;99.90
52125;DHT22;38119;52.710;6.398;2023-05-07T02:08:11;14.30;99.90
52125;DHT22;38119;52.710;6.398;2023-05-07T02:10:37;14.30;99.90
52125;DHT22;38119;52.710;6.398;2023-05-07T02:13:03;14.30;99.90
52125;DHT22;38119;52.710;6.398;2023-05-07T02:15:28;14.30;99.90
52125;DHT22;38119;52.710;6.398;2023-05-07T02:18:08;14.30;99.90
52125;DHT22;38119;52.710;6.398;2023-05-07T02:20:34;14.20;99.90
52125;DHT22;38119;52.710;6.398;2023-05-07T02:23:00;14.20;99.90
52125;DHT22;38119;52.710;6.398;2023-05-07T02:25:26;14.10;99.90
52125;DHT22;38119;52.710;6.398;2023-05-07T02:27:52;14.10;99.90
52125;DHT22;38119;52.710;6.398;2023-05-07T02:30:17;14.10;99.90
52125;DHT22;38119;52.710;6.398;2023-05-07T02:32:43;14.10;99.90
52125;DHT22;38119;52.710;6.398;2023-05-07T02:35:09;14.10;99.90
52125;DHT22;38119;52.710;6.398;2023-05-07T02:37:34;14.00;99.90
52125;DHT22;38119;52.710;6.398;2023-05-07T02:40:00;14.00;99.90
52125;DHT22;38119;52.710;6.398;2023-05-07T02:42:26;14.00;99.90
52125;DHT22;38119;52.710;6.398;2023-05-07T02:44:51;14.00;99.90
52125;DHT22;38119;52.710;6.398;2023-05-07T02:47:18;13.90;99.90
52125;DHT22;38119;52.710;6.398;2023-05-07T02:49:43;13.90;99.90
52125;DHT22;38119;52.710;6.398;2023-05-07T02:52:09;13.90;99.90
52125;DHT22;38119;52.710;6.398;2023-05-07T02:54:34;13.90;99.90
52125;DHT22;38119;52.710;6.398;2023-05-07T02:57:00;13.90;99.90
52125;DHT22;38119;52.710;6.398;2023-05-07T02:59:26;13.80;99.90
52125;DHT22;38119;52.710;6.398;2023-05-07T03:01:51;13.80;99.90
52125;DHT22;38119;52.710;6.398;2023-05-07T03:04:17;13.70;99.90
52125;DHT22;38119;52.710;6.398;2023-05-07T03:06:43;13.70;99.90
52125;DHT22;38119;52.710;6.398;2023-05-07T03:09:08;13.70;99.90
52125;DHT22;38119;52.710;6.398;2023-05-07T03:11:34;13.70;99.90
52125;DHT22;38119;52.710;6.398;2023-05-07T03:14:01;13.70;99.90
52125;DHT22;38119;52.710;6.398;2023-05-07T03:16:27;13.60;99.90
52125;DHT22;38119;52.710;6.398;2023-05-07T03:18:52;13.60;99.90
52125;DHT22;38119;52.710;6.398;2023-05-07T03:21:18;13.60;99.90
52125;DHT22;38119;52.710;6.398;2023-05-07T03:23:44;13.60;99.90
52125;DHT22;38119;52.710;6.398;2023-05-07T03:26:10;13.50;99.90
52125;DHT22;38119;52.710;6.398;2023-05-07T03:28:36;13.50;99.90
52125;DHT22;38119;52.710;6.398;2023-05-07T03:31:02;13.50;99.90
52125;DHT22;38119;52.710;6.398;2023-05-07T03:33:28;13.40;99.90
52125;DHT22;38119;52.710;6.398;2023-05-07T03:35:53;13.40;99.90
52125;DHT22;38119;52.710;6.398;2023-05-07T03:38:19;13.40;99.90
52125;DHT22;38119;52.710;6.398;2023-05-07T03:40:44;13.40;99.90
52125;DHT22;38119;52.710;6.398;2023-05-07T03:43:10;13.40;99.90
52125;DHT22;38119;52.710;6.398;2023-05-07T03:45:35;13.40;99.90
52125;DHT22;38119;52.710;6.398;2023-05-07T03:48:01;13.30;99.90
52125;DHT22;38119;52.710;6.398;2023-05-07T03:50:27;13.30;99.90
52125;DHT22;38119;52.710;6.398;2023-05-07T03:52:52;13.30;99.90
52125;DHT22;38119;52.710;6.398;2023-05-07T03:55:18;13.30;99.90
52125;DHT22;38119;52.710;6.398;2023-05-07T03:57:43;13.20;99.90
52125;DHT22;38119;52.710;6.398;2023-05-07T04:00:09;13.20;99.90
52125;DHT22;38119;52.710;6.398;2023-05-07T04:02:35;13.20;99.90
52125;DHT22;38119;52.710;6.398;2023-05-07T04:05:00;13.20;99.90
52125;DHT22;38119;52.710;6.398;2023-05-07T04:07:26;13.20;99.90
52125;DHT22;38119;52.710;6.398;2023-05-07T04:09:52;13.20;99.90
52125;DHT22;38119;52.710;6.398;2023-05-07T04:12:17;13.10;99.90
52125;DHT22;38119;52.710;6.398;2023-05-07T04:14:43;13.10;99.90
52125;DHT22;38119;52.710;6.398;2023-05-07T04:17:08;13.10;99.90
52125;DHT22;38119;52.710;6.398;2023-05-07T04:19:36;13.10;99.90
52125;DHT22;38119;52.710;6.398;2023-05-07T04:22:01;13.10;99.90
52125;DHT22;38119;52.710;6.398;2023-05-07T04:24:27;13.10;99.90
52125;DHT22;38119;52.710;6.398;2023-05-07T04:26:52;13.10;99.90
52125;DHT22;38119;52.710;6.398;2023-05-07T04:29:18;13.10;99.90
52125;DHT22;38119;52.710;6.398;2023-05-07T04:31:44;13.10;99.90
52125;DHT22;38119;52.710;6.398;2023-05-07T04:34:10;13.10;99.90
52125;DHT22;38119;52.710;6.398;2023-05-07T04:36:37;13.10;99.90
52125;DHT22;38119;52.710;6.398;2023-05-07T04:39:03;13.10;99.90
52125;DHT22;38119;52.710;6.398;2023-05-07T04:41:29;13.10;99.90
52125;DHT22;38119;52.710;6.398;2023-05-07T04:43:55;13.10;99.90
52125;DHT22;38119;52.710;6.398;2023-05-07T04:46:22;13.10;99.90
52125;DHT22;38119;52.710;6.398;2023-05-07T04:48:49;13.10;99.90
52125;DHT22;38119;52.710;6.398;2023-05-07T04:51:14;13.10;99.90
52125;DHT22;38119;52.710;6.398;2023-05-07T04:53:40;13.10;99.90
52125;DHT22;38119;52.710;6.398;2023-05-07T04:56:06;13.10;99.90
52125;DHT22;38119;52.710;6.398;2023-05-07T04:58:31;13.10;99.90
52125;DHT22;38119;52.710;6.398;2023-05-07T05:00:58;13.10;99.90
52125;DHT22;38119;52.710;6.398;2023-05-07T05:03:23;13.10;99.90
52125;DHT22;38119;52.710;6.398;2023-05-07T05:05:50;13.10;99.90
52125;DHT22;38119;52.710;6.398;2023-05-07T05:08:16;13.10;99.90
52125;DHT22;38119;52.710;6.398;2023-05-07T05:10:42;13.10;99.90
52125;DHT22;38119;52.710;6.398;2023-05-07T05:13:09;13.10;99.90
52125;DHT22;38119;52.710;6.398;2023-05-07T05:15:34;13.10;99.90
52125;DHT22;38119;52.710;6.398;2023-05-07T05:18:00;13.10;99.90
52125;DHT22;38119;52.710;6.398;2023-05-07T05:20:26;13.10;99.90
52125;DHT22;38119;52.710;6.398;2023-05-07T05:22:51;13.10;99.90
52125;DHT22;38119;52.710;6.398;2023-05-07T05:25:17;13.10;99.90
52125;DHT22;38119;52.710;6.398;2023-05-07T05:27:43;13.10;99.90
52125;DHT22;38119;52.710;6.398;2023-05-07T05:30:08;13.10;99.90
52125;DHT22;38119;52.710;6.398;2023-05-07T05:32:34;13.10;99.90
52125;DHT22;38119;52.710;6.398;2023-05-07T05:35:00;13.10;99.90
52125;DHT22;38119;52.710;6.398;2023-05-07T05:37:25;13.10;99.90
52125;DHT22;38119;52.710;6.398;2023-05-07T05:39:51;13.10;99.90
52125;DHT22;38119;52.710;6.398;2023-05-07T05:42:18;13.10;99.90
52125;DHT22;38119;52.710;6.398;2023-05-07T05:44:43;13.20;99.90
52125;DHT22;38119;52.710;6.398;2023-05-07T05:47:09;13.20;99.90
52125;DHT22;38119;52.710;6.398;2023-05-07T05:49:34;13.20;99.90
52125;DHT22;38119;52.710;6.398;2023-05-07T05:52:00;13.20;99.90
52125;DHT22;38119;52.710;6.398;2023-05-07T05:54:26;13.20;99.90
52125;DHT22;38119;52.710;6.398;2023-05-07T05:56:51;13.20;99.90
52125;DHT22;38119;52.710;6.398;2023-05-07T05:59:17;13.20;99.90
52125;DHT22;38119;52.710;6.398;2023-05-07T06:01:42;13.30;99.90
52125;DHT22;38119;52.710;6.398;2023-05-07T06:04:08;13.30;99.90
52125;DHT22;38119;52.710;6.398;2023-05-07T06:06:33;13.30;99.90
52125;DHT22;38119;52.710;6.398;2023-05-07T06:08:59;13.30;99.90
52125;DHT22;38119;52.710;6.398;2023-05-07T06:11:25;13.30;99.90
52125;DHT22;38119;52.710;6.398;2023-05-07T06:13:51;13.30;99.90
52125;DHT22;38119;52.710;6.398;2023-05-07T06:16:16;13.30;99.90
52125;DHT22;38119;52.710;6.398;2023-05-07T06:18:42;13.30;99.90
52125;DHT22;38119;52.710;6.398;2023-05-07T06:21:07;13.40;99.90
52125;DHT22;38119;52.710;6.398;2023-05-07T06:23:33;13.40;99.90
52125;DHT22;38119;52.710;6.398;2023-05-07T06:26:01;13.40;99.90
52125;DHT22;38119;52.710;6.398;2023-05-07T06:28:27;13.40;99.90
52125;DHT22;38119;52.710;6.398;2023-05-07T06:30:52;13.40;99.90
52125;DHT22;38119;52.710;6.398;2023-05-07T06:33:18;13.40;99.90
52125;DHT22;38119;52.710;6.398;2023-05-07T06:35:45;13.40;99.90
52125;DHT22;38119;52.710;6.398;2023-05-07T06:38:10;13.40;99.90
52125;DHT22;38119;52.710;6.398;2023-05-07T06:40:37;13.40;99.90
52125;DHT22;38119;52.710;6.398;2023-05-07T06:43:03;13.50;99.90
52125;DHT22;38119;52.710;6.398;2023-05-07T06:45:28;13.40;99.90
52125;DHT22;38119;52.710;6.398;2023-05-07T06:47:54;13.50;99.90
52125;DHT22;38119;52.710;6.398;2023-05-07T06:50:19;13.60;99.90
52125;DHT22;38119;52.710;6.398;2023-05-07T06:52:45;13.60;99.90
52125;DHT22;38119;52.710;6.398;2023-05-07T06:55:11;13.70;99.90
52125;DHT22;38119;52.710;6.398;2023-05-07T06:57:37;13.80;99.90
52125;DHT22;38119;52.710;6.398;2023-05-07T07:00:03;13.80;99.90
52125;DHT22;38119;52.710;6.398;2023-05-07T07:02:32;13.80;99.90
52125;DHT22;38119;52.710;6.398;2023-05-07T07:04:57;13.90;99.90
52125;DHT22;38119;52.710;6.398;2023-05-07T07:07:23;13.90;99.90
52125;DHT22;38119;52.710;6.398;2023-05-07T07:09:49;13.90;99.90
52125;DHT22;38119;52.710;6.398;2023-05-07T07:12:15;13.90;99.90
52125;DHT22;38119;52.710;6.398;2023-05-07T07:14:40;14.00;99.90
52125;DHT22;38119;52.710;6.398;2023-05-07T07:17:06;14.00;99.90
52125;DHT22;38119;52.710;6.398;2023-05-07T07:19:31;14.10;99.90
52125;DHT22;38119;52.710;6.398;2023-05-07T07:21:57;14.20;99.90
52125;DHT22;38119;52.710;6.398;2023-05-07T07:24:22;14.20;99.90
52125;DHT22;38119;52.710;6.398;2023-05-07T07:26:48;14.30;99.90
52125;DHT22;38119;52.710;6.398;2023-05-07T07:29:13;14.30;99.90
52125;DHT22;38119;52.710;6.398;2023-05-07T07:31:39;14.40;99.90
52125;DHT22;38119;52.710;6.398;2023-05-07T07:34:05;14.50;99.90
52125;DHT22;38119;52.710;6.398;2023-05-07T07:36:30;14.50;99.90
52125;DHT22;38119;52.710;6.398;2023-05-07T07:38:56;14.60;99.90
52125;DHT22;38119;52.710;6.398;2023-05-07T07:41:21;14.60;99.90
52125;DHT22;38119;52.710;6.398;2023-05-07T07:43:47;14.70;99.90
52125;DHT22;38119;52.710;6.398;2023-05-07T07:46:13;14.70;99.90
52125;DHT22;38119;52.710;6.398;2023-05-07T07:48:38;14.70;99.90
52125;DHT22;38119;52.710;6.398;2023-05-07T07:51:04;14.80;99.90
52125;DHT22;38119;52.710;6.398;2023-05-07T07:53:30;14.80;99.90
52125;DHT22;38119;52.710;6.398;2023-05-07T07:55:55;14.90;99.90
52125;DHT22;38119;52.710;6.398;2023-05-07T07:58:21;15.00;99.90
52125;DHT22;38119;52.710;6.398;2023-05-07T08:00:47;15.00;99.90
52125;DHT22;38119;52.710;6.398;2023-05-07T08:03:13;15.10;99.90
52125;DHT22;38119;52.710;6.398;2023-05-07T08:05:39;15.10;99.90
52125;DHT22;38119;52.710;6.398;2023-05-07T08:08:05;15.20;99.90
52125;DHT22;38119;52.710;6.398;2023-05-07T08:10:31;15.20;99.90
52125;DHT22;38119;52.710;6.398;2023-05-07T08:13:00;15.30;99.90
52125;DHT22;38119;52.710;6.398;2023-05-07T08:15:26;15.40;99.90
52125;DHT22;38119;52.710;6.398;2023-05-07T08:17:51;15.50;99.90
52125;DHT22;38119;52.710;6.398;2023-05-07T08:20:17;15.60;99.90
52125;DHT22;38119;52.710;6.398;2023-05-07T08:22:42;15.60;99.90
52125;DHT22;38119;52.710;6.398;2023-05-07T08:25:08;15.70;99.90
52125;DHT22;38119;52.710;6.398;2023-05-07T08:27:34;15.80;99.90
52125;DHT22;38119;52.710;6.398;2023-05-07T08:30:00;15.90;99.90
52125;DHT22;38119;52.710;6.398;2023-05-07T08:32:25;16.00;99.90
52125;DHT22;38119;52.710;6.398;2023-05-07T08:34:51;16.10;99.90
52125;DHT22;38119;52.710;6.398;2023-05-07T08:37:16;16.20;99.90
52125;DHT22;38119;52.710;6.398;2023-05-07T08:39:42;16.30;99.90
52125;DHT22;38119;52.710;6.398;2023-05-07T08:42:09;16.40;99.90
52125;DHT22;38119;52.710;6.398;2023-05-07T08:44:38;16.60;99.90
52125;DHT22;38119;52.710;6.398;2023-05-07T08:47:07;16.80;99.90
52125;DHT22;38119;52.710;6.398;2023-05-07T08:49:33;17.00;99.90
52125;DHT22;38119;52.710;6.398;2023-05-07T08:51:59;17.00;99.90
52125;DHT22;38119;52.710;6.398;2023-05-07T08:54:26;17.00;99.90
52125;DHT22;38119;52.710;6.398;2023-05-07T08:56:53;17.20;99.90
52125;DHT22;38119;52.710;6.398;2023-05-07T08:59:18;17.40;99.90
52125;DHT22;38119;52.710;6.398;2023-05-07T09:01:44;17.60;99.90
52125;DHT22;38119;52.710;6.398;2023-05-07T09:04:10;17.70;99.90
52125;DHT22;38119;52.710;6.398;2023-05-07T09:06:35;17.80;99.90
52125;DHT22;38119;52.710;6.398;2023-05-07T09:09:03;17.80;99.90
52125;DHT22;38119;52.710;6.398;2023-05-07T09:11:30;17.70;99.90
52125;DHT22;38119;52.710;6.398;2023-05-07T09:13:57;17.80;99.90
52125;DHT22;38119;52.710;6.398;2023-05-07T09:16:30;17.80;99.90
52125;DHT22;38119;52.710;6.398;2023-05-07T09:18:58;17.90;99.90
52125;DHT22;38119;52.710;6.398;2023-05-07T09:21:25;17.90;99.90
52125;DHT22;38119;52.710;6.398;2023-05-07T09:23:52;18.20;99.90
52125;DHT22;38119;52.710;6.398;2023-05-07T09:26:20;18.50;99.90
52125;DHT22;38119;52.710;6.398;2023-05-07T09:28:46;18.80;99.90
52125;DHT22;38119;52.710;6.398;2023-05-07T09:31:12;19.00;99.90
52125;DHT22;38119;52.710;6.398;2023-05-07T09:33:39;19.20;99.90
52125;DHT22;38119;52.710;6.398;2023-05-07T09:36:05;19.30;99.90
52125;DHT22;38119;52.710;6.398;2023-05-07T09:38:33;19.40;99.90
52125;DHT22;38119;52.710;6.398;2023-05-07T09:41:12;19.50;99.90
52125;DHT22;38119;52.710;6.398;2023-05-07T09:43:39;19.50;99.90
52125;DHT22;38119;52.710;6.398;2023-05-07T09:46:12;19.60;99.90
52125;DHT22;38119;52.710;6.398;2023-05-07T09:48:39;19.70;99.90
52125;DHT22;38119;52.710;6.398;2023-05-07T09:51:11;20.00;99.90
52125;DHT22;38119;52.710;6.398;2023-05-07T09:53:39;20.20;99.90
52125;DHT22;38119;52.710;6.398;2023-05-07T09:56:06;20.60;99.90
52125;DHT22;38119;52.710;6.398;2023-05-07T09:58:33;20.80;99.90
52125;DHT22;38119;52.710;6.398;2023-05-07T10:01:02;20.90;99.90
52125;DHT22;38119;52.710;6.398;2023-05-07T10:03:29;21.20;99.90
52125;DHT22;38119;52.710;6.398;2023-05-07T10:05:58;21.40;99.90
52125;DHT22;38119;52.710;6.398;2023-05-07T10:08:24;21.50;99.90
52125;DHT22;38119;52.710;6.398;2023-05-07T10:10:50;21.60;99.90
52125;DHT22;38119;52.710;6.398;2023-05-07T10:13:18;21.70;99.90
52125;DHT22;38119;52.710;6.398;2023-05-07T10:15:44;21.80;99.90
52125;DHT22;38119;52.710;6.398;2023-05-07T10:18:12;21.70;99.90
52125;DHT22;38119;52.710;6.398;2023-05-07T10:20:38;21.60;99.90
52125;DHT22;38119;52.710;6.398;2023-05-07T10:23:04;21.60;99.90
52125;DHT22;38119;52.710;6.398;2023-05-07T10:25:32;21.60;99.90
52125;DHT22;38119;52.710;6.398;2023-05-07T10:28:01;21.60;99.90
52125;DHT22;38119;52.710;6.398;2023-05-07T10:31:01;21.70;99.90
52125;DHT22;38119;52.710;6.398;2023-05-07T10:33:29;21.70;99.90
52125;DHT22;38119;52.710;6.398;2023-05-07T10:35:59;21.80;99.90
52125;DHT22;38119;52.710;6.398;2023-05-07T10:38:26;21.80;99.90
52125;DHT22;38119;52.710;6.398;2023-05-07T10:40:52;21.80;99.90
52125;DHT22;38119;52.710;6.398;2023-05-07T10:43:18;21.80;99.90
52125;DHT22;38119;52.710;6.398;2023-05-07T10:46:16;21.90;99.90
52125;DHT22;38119;52.710;6.398;2023-05-07T10:51:28;21.90;99.90
52125;DHT22;38119;52.710;6.398;2023-05-07T10:56:41;21.90;99.90
52125;DHT22;38119;52.710;6.398;2023-05-07T11:04:18;21.90;99.90
52125;DHT22;38119;52.710;6.398;2023-05-07T11:15:12;22.10;99.90
52125;DHT22;38119;52.710;6.398;2023-05-07T11:17:55;22.30;99.90
52125;DHT22;38119;52.710;6.398;2023-05-07T11:20:47;22.60;99.90
52125;DHT22;38119;52.710;6.398;2023-05-07T11:26:09;22.50;99.90
52125;DHT22;38119;52.710;6.398;2023-05-07T11:28:40;22.30;99.90
52125;DHT22;38119;52.710;6.398;2023-05-07T11:31:06;22.20;99.90
52125;DHT22;38119;52.710;6.398;2023-05-07T11:33:32;22.10;99.90
52125;DHT22;38119;52.710;6.398;2023-05-07T11:35:58;22.20;99.90
52125;DHT22;38119;52.710;6.398;2023-05-07T11:38:25;22.20;99.90
52125;DHT22;38119;52.710;6.398;2023-05-07T11:40:55;22.30;99.90
52125;DHT22;38119;52.710;6.398;2023-05-07T11:43:21;22.40;99.90
52125;DHT22;38119;52.710;6.398;2023-05-07T11:45:48;22.50;99.90
52125;DHT22;38119;52.710;6.398;2023-05-07T11:48:15;22.60;99.90
52125;DHT22;38119;52.710;6.398;2023-05-07T11:50:50;22.70;99.90
52125;DHT22;38119;52.710;6.398;2023-05-07T11:53:17;23.00;99.90
52125;DHT22;38119;52.710;6.398;2023-05-07T11:55:42;23.10;99.90
52125;DHT22;38119;52.710;6.398;2023-05-07T11:58:12;23.20;99.90
52125;DHT22;38119;52.710;6.398;2023-05-07T12:00:37;23.10;99.90
52125;DHT22;38119;52.710;6.398;2023-05-07T12:03:04;23.10;99.90
52125;DHT22;38119;52.710;6.398;2023-05-07T12:05:30;23.10;99.90
52125;DHT22;38119;52.710;6.398;2023-05-07T12:07:57;23.00;99.90
52125;DHT22;38119;52.710;6.398;2023-05-07T12:10:23;22.80;99.90
52125;DHT22;38119;52.710;6.398;2023-05-07T12:12:50;22.70;99.90
52125;DHT22;38119;52.710;6.398;2023-05-07T12:15:16;22.60;99.90
52125;DHT22;38119;52.710;6.398;2023-05-07T12:17:43;22.60;99.90
52125;DHT22;38119;52.710;6.398;2023-05-07T12:20:09;22.50;99.90
52125;DHT22;38119;52.710;6.398;2023-05-07T12:22:36;22.50;99.90
52125;DHT22;38119;52.710;6.398;2023-05-07T12:25:02;22.40;99.90
52125;DHT22;38119;52.710;6.398;2023-05-07T12:27:28;22.40;99.90
52125;DHT22;38119;52.710;6.398;2023-05-07T12:29:54;22.40;99.90
52125;DHT22;38119;52.710;6.398;2023-05-07T12:32:21;22.40;99.90
52125;DHT22;38119;52.710;6.398;2023-05-07T12:34:50;22.50;99.90
52125;DHT22;38119;52.710;6.398;2023-05-07T12:37:16;22.70;99.90
52125;DHT22;38119;52.710;6.398;2023-05-07T12:39:47;22.90;99.90
52125;DHT22;38119;52.710;6.398;2023-05-07T12:42:18;23.10;99.90
52125;DHT22;38119;52.710;6.398;2023-05-07T12:44:46;23.30;99.90
52125;DHT22;38119;52.710;6.398;2023-05-07T12:47:12;23.40;99.90
52125;DHT22;38119;52.710;6.398;2023-05-07T12:49:38;23.60;99.90
52125;DHT22;38119;52.710;6.398;2023-05-07T12:52:04;23.60;99.90
52125;DHT22;38119;52.710;6.398;2023-05-07T12:54:37;23.60;99.90
52125;DHT22;38119;52.710;6.398;2023-05-07T12:57:05;23.50;99.90
52125;DHT22;38119;52.710;6.398;2023-05-07T12:59:41;23.30;99.90
52125;DHT22;38119;52.710;6.398;2023-05-07T13:02:07;23.10;99.90
52125;DHT22;38119;52.710;6.398;2023-05-07T13:04:34;23.10;99.90
52125;DHT22;38119;52.710;6.398;2023-05-07T13:07:00;23.00;99.90
52125;DHT22;38119;52.710;6.398;2023-05-07T13:09:26;22.90;99.90
52125;DHT22;38119;52.710;6.398;2023-05-07T13:11:52;22.80;99.90
52125;DHT22;38119;52.710;6.398;2023-05-07T13:14:17;22.70;99.90
52125;DHT22;38119;52.710;6.398;2023-05-07T13:16:43;22.70;99.90
52125;DHT22;38119;52.710;6.398;2023-05-07T13:19:09;22.60;99.90
52125;DHT22;38119;52.710;6.398;2023-05-07T13:21:34;22.60;99.90
52125;DHT22;38119;52.710;6.398;2023-05-07T13:24:00;22.70;99.90
52125;DHT22;38119;52.710;6.398;2023-05-07T13:26:26;22.70;99.90
52125;DHT22;38119;52.710;6.398;2023-05-07T13:28:53;22.80;99.90
52125;DHT22;38119;52.710;6.398;2023-05-07T13:31:18;22.70;99.90
52125;DHT22;38119;52.710;6.398;2023-05-07T13:33:46;22.60;99.90
52125;DHT22;38119;52.710;6.398;2023-05-07T13:36:11;22.50;99.90
52125;DHT22;38119;52.710;6.398;2023-05-07T13:38:38;22.30;99.90
52125;DHT22;38119;52.710;6.398;2023-05-07T13:41:04;22.10;99.90
52125;DHT22;38119;52.710;6.398;2023-05-07T13:43:30;21.90;99.90
52125;DHT22;38119;52.710;6.398;2023-05-07T13:45:57;21.80;99.90
52125;DHT22;38119;52.710;6.398;2023-05-07T13:48:22;21.70;99.90
52125;DHT22;38119;52.710;6.398;2023-05-07T13:50:48;21.70;99.90
52125;DHT22;38119;52.710;6.398;2023-05-07T13:53:13;21.70;99.90
52125;DHT22;38119;52.710;6.398;2023-05-07T13:55:42;21.70;99.90
52125;DHT22;38119;52.710;6.398;2023-05-07T13:58:08;21.70;99.90
52125;DHT22;38119;52.710;6.398;2023-05-07T14:00:33;21.80;99.90
52125;DHT22;38119;52.710;6.398;2023-05-07T14:02:59;21.80;99.90
52125;DHT22;38119;52.710;6.398;2023-05-07T14:05:25;21.80;99.90
52125;DHT22;38119;52.710;6.398;2023-05-07T14:07:53;21.80;99.90
52125;DHT22;38119;52.710;6.398;2023-05-07T14:10:19;21.80;99.90
52125;DHT22;38119;52.710;6.398;2023-05-07T14:12:45;21.80;99.90
52125;DHT22;38119;52.710;6.398;2023-05-07T14:15:11;21.80;99.90
52125;DHT22;38119;52.710;6.398;2023-05-07T14:17:37;21.70;99.90
52125;DHT22;38119;52.710;6.398;2023-05-07T14:20:03;21.70;99.90
52125;DHT22;38119;52.710;6.398;2023-05-07T14:22:28;21.60;99.90
52125;DHT22;38119;52.710;6.398;2023-05-07T14:24:54;21.60;99.90
52125;DHT22;38119;52.710;6.398;2023-05-07T14:27:19;21.50;99.90
52125;DHT22;38119;52.710;6.398;2023-05-07T14:29:45;21.50;99.90
52125;DHT22;38119;52.710;6.398;2023-05-07T14:32:16;21.40;99.90
52125;DHT22;38119;52.710;6.398;2023-05-07T14:34:42;21.40;99.90
52125;DHT22;38119;52.710;6.398;2023-05-07T14:37:08;21.40;99.90
52125;DHT22;38119;52.710;6.398;2023-05-07T14:39:33;21.30;99.90
52125;DHT22;38119;52.710;6.398;2023-05-07T14:41:59;21.20;99.90
52125;DHT22;38119;52.710;6.398;2023-05-07T14:44:24;21.20;99.90
52125;DHT22;38119;52.710;6.398;2023-05-07T14:46:50;21.20;99.90
52125;DHT22;38119;52.710;6.398;2023-05-07T14:49:16;21.20;99.90
52125;DHT22;38119;52.710;6.398;2023-05-07T14:51:45;21.10;99.90
52125;DHT22;38119;52.710;6.398;2023-05-07T14:54:11;21.10;99.90
52125;DHT22;38119;52.710;6.398;2023-05-07T14:56:37;21.00;99.90
52125;DHT22;38119;52.710;6.398;2023-05-07T14:59:05;21.00;99.90
52125;DHT22;38119;52.710;6.398;2023-05-07T15:01:31;20.90;99.90
52125;DHT22;38119;52.710;6.398;2023-05-07T15:03:56;20.90;99.90
52125;DHT22;38119;52.710;6.398;2023-05-07T15:06:22;20.90;99.90
52125;DHT22;38119;52.710;6.398;2023-05-07T15:08:47;20.80;99.90
52125;DHT22;38119;52.710;6.398;2023-05-07T15:11:16;20.80;99.90
52125;DHT22;38119;52.710;6.398;2023-05-07T15:13:42;20.70;99.90
52125;DHT22;38119;52.710;6.398;2023-05-07T15:16:08;20.70;99.90
52125;DHT22;38119;52.710;6.398;2023-05-07T15:18:33;20.70;99.90
52125;DHT22;38119;52.710;6.398;2023-05-07T15:20:59;20.70;99.90
52125;DHT22;38119;52.710;6.398;2023-05-07T15:23:24;20.50;99.90
52125;DHT22;38119;52.710;6.398;2023-05-07T15:25:51;20.40;99.90
52125;DHT22;38119;52.710;6.398;2023-05-07T15:28:17;20.40;99.90
52125;DHT22;38119;52.710;6.398;2023-05-07T15:30:42;20.40;99.90
52125;DHT22;38119;52.710;6.398;2023-05-07T15:33:08;20.40;99.90
52125;DHT22;38119;52.710;6.398;2023-05-07T15:35:34;20.30;99.90
52125;DHT22;38119;52.710;6.398;2023-05-07T15:37:59;20.30;99.90
52125;DHT22;38119;52.710;6.398;2023-05-07T15:40:26;20.30;99.90
52125;DHT22;38119;52.710;6.398;2023-05-07T15:42:54;20.30;99.90
52125;DHT22;38119;52.710;6.398;2023-05-07T15:45:21;20.30;99.90
52125;DHT22;38119;52.710;6.398;2023-05-07T15:47:46;20.30;99.90